Time;durP1;ratioP1;P1;durP2;ratioP2;P2;SDS_P1;SDS_P2;PMS_P1;PMS_P2;Temp;Humidity;BMP_temperature;BMP_pressure;BME280_temperature;BME280_humidity;BME280_pressure;Samples;Min_cycle;Max_cycle;Signal;HPM_P1;HPM_P2
2022/06/21 00:01:33;;;;;;;;;;;;;;;22.39;40.83;100131.30;1744928;81;25416;-57
2022/06/21 00:04:01;;;;;;;;;;;;;;;22.33;40.65;100122.09;1751173;80;25790;-56
2022/06/21 00:06:28;;;;;;;;;;;;;;;22.27;40.94;100117.55;1754758;80;27519;-57
2022/06/21 00:08:55;;;;;;;;;;;;;;;22.22;41.33;100116.05;1751270;80;25774;-56
2022/06/21 00:11:27;;;;;;;;;;;;;;;22.15;41.46;100118.85;1758272;80;25912;-57
2022/06/21 00:13:55;;;;;;;;;;;;;;;22.05;42.54;100134.98;1760071;80;25711;-57
2022/06/21 00:16:24;;;;;;;;;;;;;;;21.85;42.76;100136.03;1747671;80;25722;-56
2022/06/21 00:18:51;;;;;;;;;;;;;;;21.69;43.92;100133.37;1748229;80;27616;-57
2022/06/21 00:21:23;;;;;;;;;;;;;;;21.55;43.67;100123.56;1757124;80;27222;-57
2022/06/21 00:23:52;;;;;;;;;;;;;;;21.46;44.24;100120.80;1751012;80;25837;-56
2022/06/21 00:26:21;;;;;;;;;;;;;;;21.42;43.82;100129.48;1756262;80;25745;-56
2022/06/21 00:28:47;;;;;;;;;;;;;;;21.40;43.69;100128.00;1747727;81;27323;-56
2022/06/21 00:31:29;;;;;;;;;;;;;;;21.33;44.15;100127.23;1751060;80;27515;-57
2022/06/21 00:33:56;;;;;;;;;;;;;;;21.24;44.64;100124.77;1748525;80;25797;-56
2022/06/21 00:36:29;;;;;;;;;;;;;;;21.18;45.17;100118.83;1730870;80;25828;-57
2022/06/21 00:38:58;;;;;;;;;;;;;;;21.14;45.49;100120.87;1705818;82;25769;-56
2022/06/21 00:41:51;;;;;;;;;;;;;;;21.08;45.36;100114.38;1697919;82;26072;-56
2022/06/21 00:44:27;;;;;;;;;;;;;;;21.04;45.79;100117.24;1706734;82;27510;-56
2022/06/21 00:47:03;;;;;;;;;;;;;;;20.95;46.68;100121.61;1718747;81;25839;-56
2022/06/21 00:49:33;;;;;;;;;;;;;;;20.87;47.40;100117.78;1734118;81;25538;-56
2022/06/21 00:52:04;;;;;;;;;;;;;;;20.79;47.03;100119.41;1728210;80;25816;-56
2022/06/21 00:54:34;;;;;;;;;;;;;;;20.75;46.87;100112.73;1725760;82;25927;-56
2022/06/21 00:57:13;;;;;;;;;;;;;;;20.74;47.41;100114.61;1725880;81;27487;-56
2022/06/21 00:59:40;;;;;;;;;;;;;;;20.68;47.06;100100.43;1725609;81;25764;-56
2022/06/21 01:02:21;;;;;;;;;;;;;;;20.61;47.51;100104.56;1734565;81;25875;-56
2022/06/21 01:04:51;;;;;;;;;;;;;;;20.52;47.84;100100.41;1724700;81;25835;-56
2022/06/21 01:07:17;;;;;;;;;;;;;;;20.44;47.44;100097.39;1722410;80;25775;-56
2022/06/21 01:09:50;;;;;;;;;;;;;;;20.41;47.49;100092.89;1719133;81;27417;-56
2022/06/21 01:12:19;;;;;;;;;;;;;;;20.40;47.81;100089.34;1722550;80;25926;-56
2022/06/21 01:14:53;;;;;;;;;;;;;;;20.37;47.57;100088.94;1725331;80;25852;-56
2022/06/21 01:17:20;;;;;;;;;;;;;;;20.32;47.92;100093.69;1729564;81;25838;-55
2022/06/21 01:19:52;;;;;;;;;;;;;;;20.28;48.03;100094.66;1741434;80;25766;-56
2022/06/21 01:22:46;;;;;;;;;;;;;;;20.25;47.82;100093.70;1728987;80;27646;-55
2022/06/21 01:25:19;;;;;;;;;;;;;;;20.23;48.02;100097.17;1726818;81;25712;-56
2022/06/21 01:27:46;;;;;;;;;;;;;;;20.15;48.64;100090.59;1733525;81;25704;-56
2022/06/21 01:30:13;;;;;;;;;;;;;;;20.06;48.93;100086.42;1727063;80;25830;-56
2022/06/21 01:32:39;;;;;;;;;;;;;;;20.01;48.73;100075.65;1728175;81;25791;-56
2022/06/21 01:35:13;;;;;;;;;;;;;;;20.01;48.94;100068.82;1717414;81;27452;-55
2022/06/21 01:37:40;;;;;;;;;;;;;;;19.99;48.62;100066.83;1688139;82;25870;-56
2022/06/21 01:40:16;;;;;;;;;;;;;;;20.01;49.11;100073.42;1718230;80;25757;-56
2022/06/21 01:42:46;;;;;;;;;;;;;;;20.00;48.86;100073.97;1747251;80;25853;-56
2022/06/21 01:45:16;;;;;;;;;;;;;;;20.01;48.97;100070.70;1754895;80;25421;-57
2022/06/21 01:47:51;;;;;;;;;;;;;;;20.01;49.65;100082.47;1733312;81;28448;-56
2022/06/21 01:50:20;;;;;;;;;;;;;;;19.91;49.86;100088.91;1724782;80;25741;-56
2022/06/21 01:52:48;;;;;;;;;;;;;;;19.83;49.67;100087.20;1736250;81;25766;-55
2022/06/21 01:55:34;;;;;;;;;;;;;;;19.77;51.24;100082.61;1730235;80;26153;-56
2022/06/21 01:58:02;;;;;;;;;;;;;;;19.66;50.70;100079.17;1726229;81;25776;-55
2022/06/21 02:00:31;;;;;;;;;;;;;;;19.64;50.16;100075.80;1711197;82;28147;-56
2022/06/21 02:03:07;;;;;;;;;;;;;;;19.61;50.71;100077.08;1734439;80;25868;-56
2022/06/21 02:05:37;;;;;;;;;;;;;;;19.57;50.96;100080.45;1735539;81;25794;-56
2022/06/21 02:08:06;;;;;;;;;;;;;;;19.52;51.06;100075.63;1724368;81;25755;-55
2022/06/21 02:10:36;;;;;;;;;;;;;;;19.48;51.08;100079.30;1717677;82;25689;-56
2022/06/21 02:13:06;;;;;;;;;;;;;;;19.44;51.43;100084.03;1727974;81;27638;-57
2022/06/21 02:15:41;;;;;;;;;;;;;;;19.42;51.09;100081.52;1726793;82;26024;-56
2022/06/21 02:18:10;;;;;;;;;;;;;;;19.46;50.66;100075.12;1719688;82;25858;-56
2022/06/21 02:20:47;;;;;;;;;;;;;;;19.49;50.89;100070.62;1726705;81;25734;-56
2022/06/21 02:23:15;;;;;;;;;;;;;;;19.49;50.57;100061.89;1720752;82;25787;-56
2022/06/21 02:25:43;;;;;;;;;;;;;;;19.45;50.88;100060.66;1730383;81;28259;-57
2022/06/21 02:28:13;;;;;;;;;;;;;;;19.37;51.28;100060.84;1731544;80;25706;-56
2022/06/21 02:30:41;;;;;;;;;;;;;;;19.33;51.55;100075.44;1727338;82;25830;-56
2022/06/21 02:33:13;;;;;;;;;;;;;;;19.34;51.35;100074.39;1738086;80;26335;-56
2022/06/21 02:35:50;;;;;;;;;;;;;;;19.36;51.15;100058.66;1711806;81;25827;-56
2022/06/21 02:38:23;;;;;;;;;;;;;;;19.38;51.33;100061.16;1693252;83;27560;-56
2022/06/21 02:40:53;;;;;;;;;;;;;;;19.41;50.70;100055.84;1687064;83;25917;-56
2022/06/21 02:43:29;;;;;;;;;;;;;;;19.43;51.67;100063.26;1690155;83;25765;-56
2022/06/21 02:45:59;;;;;;;;;;;;;;;19.39;51.17;100051.43;1707037;82;25877;-56
2022/06/21 02:48:29;;;;;;;;;;;;;;;19.43;50.72;100050.48;1714644;82;27522;-56
2022/06/21 02:51:02;;;;;;;;;;;;;;;19.47;51.03;100049.52;1712929;80;27510;-56
2022/06/21 02:53:35;;;;;;;;;;;;;;;19.50;51.11;100047.71;1718461;80;26125;-56
2022/06/21 02:56:20;;;;;;;;;;;;;;;19.51;50.54;100041.21;1715418;81;25843;-56
2022/06/21 02:58:50;;;;;;;;;;;;;;;19.53;50.44;100037.75;1716329;81;25875;-56
2022/06/21 03:01:20;;;;;;;;;;;;;;;19.53;51.06;100040.48;1717592;80;25922;-56
2022/06/21 03:03:47;;;;;;;;;;;;;;;19.54;50.84;100036.70;1724259;81;27656;-56
2022/06/21 03:06:16;;;;;;;;;;;;;;;19.54;51.06;100027.16;1712292;82;25843;-56
2022/06/21 03:08:55;;;;;;;;;;;;;;;19.56;50.85;100030.52;1709009;82;25872;-56
2022/06/21 03:11:23;;;;;;;;;;;;;;;19.59;51.24;100020.52;1723757;82;25850;-56
2022/06/21 03:13:50;;;;;;;;;;;;;;;19.61;50.81;100017.05;1718479;81;25945;-56
2022/06/21 03:16:20;;;;;;;;;;;;;;;19.63;50.78;100021.78;1711420;81;27485;-55
2022/06/21 03:18:52;;;;;;;;;;;;;;;19.63;51.26;100029.14;1708693;81;25724;-56
2022/06/21 03:21:28;;;;;;;;;;;;;;;19.62;50.95;100023.37;1713811;82;25808;-56
2022/06/21 03:23:57;;;;;;;;;;;;;;;19.62;51.21;100028.28;1715322;81;26494;-56
2022/06/21 03:26:26;;;;;;;;;;;;;;;19.66;51.04;100015.05;1709605;81;25727;-56
2022/06/21 03:28:53;;;;;;;;;;;;;;;19.68;51.19;100015.68;1718361;82;27860;-56
2022/06/21 03:31:33;;;;;;;;;;;;;;;19.70;51.20;100013.58;1710230;82;26642;-56
2022/06/21 03:34:12;;;;;;;;;;;;;;;19.74;51.18;100016.72;1717231;80;25761;-56
2022/06/21 03:36:40;;;;;;;;;;;;;;;19.78;51.39;100014.70;1733173;81;26544;-56
2022/06/21 03:39:11;;;;;;;;;;;;;;;19.81;51.58;100022.98;1720930;80;25847;-56
2022/06/21 03:41:43;;;;;;;;;;;;;;;19.85;51.17;100025.64;1734599;80;28394;-55
2022/06/21 03:44:19;;;;;;;;;;;;;;;19.87;51.64;100023.50;1735658;81;25850;-55
2022/06/21 03:46:55;;;;;;;;;;;;;;;19.85;52.08;100021.54;1706039;81;25756;-56
2022/06/21 03:49:26;;;;;;;;;;;;;;;19.86;51.86;100026.77;1687538;82;25798;-56
2022/06/21 03:51:55;;;;;;;;;;;;;;;19.89;51.78;100010.48;1691188;82;25844;-56
2022/06/21 03:54:34;;;;;;;;;;;;;;;19.95;51.67;100014.24;1718655;81;27599;-56
2022/06/21 03:57:13;;;;;;;;;;;;;;;20.00;51.31;100019.87;1722574;81;27288;-56
2022/06/21 04:00:00;;;;;;;;;;;;;;;20.04;51.31;100023.04;1718350;82;25875;-56
2022/06/21 04:02:30;;;;;;;;;;;;;;;20.09;51.20;100016.39;1724607;81;25855;-58
2022/06/21 04:05:00;;;;;;;;;;;;;;;20.14;51.90;100011.95;1666873;84;25828;-56
2022/06/21 04:07:39;;;;;;;;;;;;;;;20.08;51.51;100010.61;1670703;85;27554;-57
2022/06/21 04:10:12;;;;;;;;;;;;;;;20.08;51.50;100000.52;1663920;85;25500;-57
2022/06/21 04:12:59;;;;;;;;;;;;;;;20.12;51.44;99997.67;1645168;85;25781;-56
2022/06/21 04:15:33;;;;;;;;;;;;;;;20.17;51.35;99995.66;1664103;85;25753;-56
2022/06/21 04:18:09;;;;;;;;;;;;;;;20.24;51.49;99978.70;1674801;85;25944;-56
2022/06/21 04:20:45;;;;;;;;;;;;;;;20.29;51.28;99981.62;1663818;85;27594;-56
2022/06/21 04:23:15;;;;;;;;;;;;;;;20.34;51.19;99974.13;1656625;85;25478;-56
2022/06/21 04:25:51;;;;;;;;;;;;;;;20.37;51.18;99970.94;1661182;85;25463;-56
2022/06/21 04:28:24;;;;;;;;;;;;;;;20.42;51.34;99972.50;1665889;85;26299;-56
2022/06/21 04:31:04;;;;;;;;;;;;;;;20.43;51.60;99973.33;1662225;85;26779;-55
2022/06/21 04:33:53;;;;;;;;;;;;;;;20.46;51.61;99983.81;1659712;85;27499;-56
2022/06/21 04:36:22;;;;;;;;;;;;;;;20.52;51.47;99987.02;1725853;81;25776;-56
2022/06/21 04:39:08;;;;;;;;;;;;;;;20.57;51.42;99983.11;1731119;81;25539;-56
2022/06/21 04:41:50;;;;;;;;;;;;;;;20.60;51.64;99987.30;1686730;83;25846;-56
2022/06/21 04:44:23;;;;;;;;;;;;;;;20.67;51.62;99987.22;1696640;83;25910;-57
2022/06/21 04:47:02;;;;;;;;;;;;;;;20.74;51.45;99991.61;1695209;82;27548;-56
2022/06/21 04:49:32;;;;;;;;;;;;;;;20.82;51.26;99992.39;1705956;81;25813;-56
2022/06/21 04:52:05;;;;;;;;;;;;;;;20.88;51.18;99987.42;1708776;83;25912;-56
2022/06/21 04:54:34;;;;;;;;;;;;;;;20.91;51.15;99983.70;1704583;83;25868;-56
2022/06/21 04:57:16;;;;;;;;;;;;;;;20.93;51.31;99987.03;1679361;83;25822;-56
2022/06/21 04:59:46;;;;;;;;;;;;;;;21.00;51.29;99991.08;1689043;82;27688;-56
2022/06/21 05:02:21;;;;;;;;;;;;;;;21.07;51.26;99985.00;1700738;81;25917;-56
2022/06/21 05:04:51;;;;;;;;;;;;;;;21.11;51.09;99972.58;1697668;81;25762;-56
2022/06/21 05:07:21;;;;;;;;;;;;;;;21.17;50.78;99969.98;1693328;82;25881;-56
2022/06/21 05:09:49;;;;;;;;;;;;;;;21.22;50.75;99968.25;1698873;82;25812;-56
2022/06/21 05:12:31;;;;;;;;;;;;;;;21.29;51.53;99979.67;1694124;81;27500;-56
2022/06/21 05:15:07;;;;;;;;;;;;;;;21.35;51.01;99980.13;1693703;83;25750;-56
2022/06/21 05:17:37;;;;;;;;;;;;;;;21.41;51.05;99981.94;1706915;82;25844;-56
2022/06/21 05:20:06;;;;;;;;;;;;;;;21.46;50.94;99980.74;1692812;83;25709;-56
2022/06/21 05:22:40;;;;;;;;;;;;;;;21.52;50.69;99974.86;1698714;81;25901;-56
2022/06/21 05:25:16;;;;;;;;;;;;;;;21.58;50.53;99979.47;1702717;83;27582;-56
2022/06/21 05:27:45;;;;;;;;;;;;;;;21.63;50.55;99979.61;1684061;83;25884;-55
2022/06/21 05:30:18;;;;;;;;;;;;;;;21.71;50.26;99977.93;1678470;82;25722;-54
2022/06/21 05:32:52;;;;;;;;;;;;;;;21.76;50.24;99973.69;1691600;83;25848;-56
2022/06/21 05:35:21;;;;;;;;;;;;;;;21.80;50.26;99971.63;1710532;81;25835;-56
2022/06/21 05:37:51;;;;;;;;;;;;;;;21.85;50.38;99976.41;1722541;82;28452;-56
2022/06/21 05:40:30;;;;;;;;;;;;;;;21.88;50.33;99976.78;1714450;81;25456;-56
2022/06/21 05:42:57;;;;;;;;;;;;;;;21.94;50.37;99977.77;1719819;81;25905;-56
2022/06/21 05:45:28;;;;;;;;;;;;;;;22.01;50.35;99974.91;1717768;82;25608;-56
2022/06/21 05:47:58;;;;;;;;;;;;;;;22.09;50.03;99973.25;1724498;81;25920;-56
2022/06/21 05:50:31;;;;;;;;;;;;;;;22.17;49.72;99969.33;1721190;81;27546;-56
2022/06/21 05:53:01;;;;;;;;;;;;;;;22.22;49.68;99977.70;1734292;80;25914;-56
2022/06/21 05:55:34;;;;;;;;;;;;;;;22.30;49.74;99982.84;1718756;81;25816;-55
2022/06/21 05:58:13;;;;;;;;;;;;;;;22.40;49.33;99975.45;1732370;81;27731;-55
2022/06/21 06:01:04;;;;;;;;;;;;;;;22.49;49.11;99969.94;1717743;81;25819;-55
2022/06/21 06:03:39;;;;;;;;;;;;;;;22.59;48.93;99969.34;1726372;81;28438;-55
2022/06/21 06:06:09;;;;;;;;;;;;;;;22.68;48.76;99966.29;1704754;82;25490;-55
2022/06/21 06:08:39;;;;;;;;;;;;;;;22.78;48.68;99963.25;1724249;81;25959;-55
2022/06/21 06:11:09;;;;;;;;;;;;;;;22.85;48.46;99967.26;1728795;80;26202;-55
2022/06/21 06:13:39;;;;;;;;;;;;;;;22.92;48.37;99965.75;1730966;81;25654;-55
2022/06/21 06:16:27;;;;;;;;;;;;;;;22.99;48.33;99961.00;1736898;81;27556;-55
2022/06/21 06:18:57;;;;;;;;;;;;;;;23.07;48.12;99963.91;1725193;81;25803;-56
2022/06/21 06:21:33;;;;;;;;;;;;;;;23.17;48.29;99961.95;1712445;80;26479;-56
2022/06/21 06:24:13;;;;;;;;;;;;;;;23.24;48.20;99962.13;1713493;81;25794;-56
2022/06/21 06:26:41;;;;;;;;;;;;;;;23.36;47.76;99959.92;1720375;81;25772;-55
2022/06/21 06:29:22;;;;;;;;;;;;;;;23.47;47.51;99947.24;1725434;81;28202;-56
2022/06/21 06:32:02;;;;;;;;;;;;;;;23.59;47.33;99945.31;1729072;81;25887;-56
2022/06/21 06:34:31;;;;;;;;;;;;;;;23.71;47.12;99941.16;1730500;81;25740;-56
2022/06/21 06:37:04;;;;;;;;;;;;;;;23.81;46.81;99937.77;1678215;83;25744;-56
2022/06/21 06:39:33;;;;;;;;;;;;;;;23.90;46.69;99928.05;1698998;82;25887;-56
2022/06/21 06:42:16;;;;;;;;;;;;;;;24.01;46.49;99925.02;1692678;83;27479;-56
2022/06/21 06:44:48;;;;;;;;;;;;;;;24.10;45.86;99922.69;1693753;82;25867;-56
2022/06/21 06:47:18;;;;;;;;;;;;;;;24.22;45.48;99917.97;1708090;82;25908;-56
2022/06/21 06:49:48;;;;;;;;;;;;;;;24.33;45.11;99917.60;1742325;81;25858;-56
2022/06/21 06:52:18;;;;;;;;;;;;;;;24.42;45.07;99918.04;1744877;81;26502;-56
2022/06/21 06:54:54;;;;;;;;;;;;;;;24.51;44.69;99922.04;1755896;80;27635;-56
2022/06/21 06:57:24;;;;;;;;;;;;;;;24.61;44.33;99924.92;1753348;80;25286;-56
2022/06/21 06:59:51;;;;;;;;;;;;;;;24.74;44.35;99925.72;1714019;82;25896;-56
2022/06/21 07:02:33;;;;;;;;;;;;;;;24.85;44.23;99927.55;1747912;80;25855;-56
2022/06/21 07:05:15;;;;;;;;;;;;;;;25.01;43.90;99929.99;1746759;81;25864;-55
2022/06/21 07:07:52;;;;;;;;;;;;;;;25.18;43.61;99924.43;1754156;81;27584;-56
2022/06/21 07:10:22;;;;;;;;;;;;;;;25.40;43.30;99926.41;1746353;80;26127;-57
2022/06/21 07:12:51;;;;;;;;;;;;;;;25.59;42.95;99925.00;1759009;80;25849;-55
2022/06/21 07:15:22;;;;;;;;;;;;;;;25.83;42.66;99927.47;1746353;80;25798;-55
2022/06/21 07:17:54;;;;;;;;;;;;;;;26.04;42.26;99935.96;1743960;81;26093;-55
2022/06/21 07:20:26;;;;;;;;;;;;;;;26.20;41.37;99935.05;1745259;81;27484;-55
2022/06/21 07:22:55;;;;;;;;;;;;;;;26.35;41.36;99940.41;1722476;80;26105;-55
2022/06/21 07:25:28;;;;;;;;;;;;;;;26.49;40.78;99930.59;1725031;82;25875;-56
2022/06/21 07:28:10;;;;;;;;;;;;;;;26.61;40.64;99919.41;1734163;81;25863;-56
2022/06/21 07:30:40;;;;;;;;;;;;;;;26.70;40.58;99910.08;1722502;80;25709;-56
2022/06/21 07:33:12;;;;;;;;;;;;;;;26.76;40.09;99920.60;1733679;81;27568;-56
2022/06/21 07:35:42;;;;;;;;;;;;;;;26.82;40.20;99924.55;1713128;80;25979;-55
2022/06/21 07:38:14;;;;;;;;;;;;;;;26.93;40.09;99928.20;1730036;81;25868;-55
2022/06/21 07:41:00;;;;;;;;;;;;;;;27.05;39.84;99925.80;1743118;80;25879;-57
2022/06/21 07:43:47;;;;;;;;;;;;;;;27.15;38.75;99919.77;1754670;80;25723;-56
2022/06/21 07:46:17;;;;;;;;;;;;;;;27.15;38.98;99919.77;1741149;80;27627;-57
2022/06/21 07:48:48;;;;;;;;;;;;;;;27.22;38.98;99913.17;1723625;80;25839;-56
2022/06/21 07:51:24;;;;;;;;;;;;;;;27.30;38.67;99925.08;1703604;82;25425;-55
2022/06/21 07:53:54;;;;;;;;;;;;;;;27.39;38.51;99912.42;1737111;80;26663;-56
2022/06/21 07:56:27;;;;;;;;;;;;;;;27.47;38.21;99918.02;1733651;82;25506;-55
2022/06/21 07:59:12;;;;;;;;;;;;;;;27.60;38.46;99918.06;1726208;80;27608;-55
2022/06/21 08:07:42;;;;;;;;;;;;;;;27.96;37.44;99902.42;1719019;82;25786;-53
2022/06/21 08:10:25;;;;;;;;;;;;;;;28.12;36.79;99902.47;1727554;81;25745;-55
2022/06/21 08:12:54;;;;;;;;;;;;;;;28.19;36.06;99903.59;1726300;81;27537;-56
2022/06/21 08:15:26;;;;;;;;;;;;;;;28.24;36.04;99900.25;1728929;80;26983;-55
2022/06/21 08:17:59;;;;;;;;;;;;;;;28.30;35.60;99902.47;1725174;81;25779;-56
2022/06/21 08:20:29;;;;;;;;;;;;;;;28.34;35.19;99899.44;1739787;80;25890;-54
2022/06/21 08:23:03;;;;;;;;;;;;;;;28.47;35.50;99891.67;1715591;82;25768;-54
2022/06/21 08:25:53;;;;;;;;;;;;;;;28.61;35.30;99887.26;1715916;82;27481;-55
2022/06/21 08:28:23;;;;;;;;;;;;;;;28.78;34.65;99876.47;1690907;83;25792;-55
2022/06/21 08:30:56;;;;;;;;;;;;;;;28.89;34.75;99866.47;1727198;81;25799;-54
2022/06/21 08:33:53;;;;;;;;;;;;;;;29.01;34.68;99866.72;1735070;81;25867;-55
2022/06/21 08:36:32;;;;;;;;;;;;;;;29.09;34.13;99859.78;1736648;80;25765;-53
2022/06/21 08:39:17;;;;;;;;;;;;;;;29.20;34.23;99854.45;1723513;81;28494;-53
2022/06/21 08:42:08;;;;;;;;;;;;;;;29.34;34.25;99853.31;1732370;81;25430;-55
2022/06/21 08:48:18;;;;;;;;;;;;;;;29.65;33.80;99842.08;1713878;82;25697;-54
2022/06/21 08:50:48;;;;;;;;;;;;;;;29.80;33.31;99847.51;1714975;81;25773;-54
2022/06/21 08:53:34;;;;;;;;;;;;;;;29.97;32.74;99836.61;1718398;81;27667;-54
2022/06/21 08:56:21;;;;;;;;;;;;;;;30.16;32.52;99838.67;1716326;80;25829;-55
2022/06/21 08:59:08;;;;;;;;;;;;;;;30.39;32.97;99836.52;1710659;81;26567;-55
2022/06/21 09:01:59;;;;;;;;;;;;;;;30.65;32.62;99832.70;1714262;81;25917;-57
2022/06/21 09:04:41;;;;;;;;;;;;;;;30.93;31.94;99828.77;1713438;81;25733;-55
2022/06/21 09:07:17;;;;;;;;;;;;;;;31.19;31.68;99834.31;1718511;82;27056;-55
2022/06/21 09:09:53;;;;;;;;;;;;;;;31.42;30.76;99835.97;1715875;81;25840;-56
2022/06/21 09:12:29;;;;;;;;;;;;;;;31.69;30.36;99831.72;1723260;81;25773;-54
2022/06/21 09:15:22;;;;;;;;;;;;;;;31.93;28.14;99832.18;1713239;82;26051;-56
2022/06/21 09:18:01;;;;;;;;;;;;;;;32.05;27.45;99830.31;1713267;80;25769;-55
2022/06/21 09:21:03;;;;;;;;;;;;;;;32.12;28.22;99825.18;1714405;82;27585;-55
2022/06/21 09:23:39;;;;;;;;;;;;;;;32.37;28.02;99819.77;1662233;83;26561;-52
2022/06/21 09:26:12;;;;;;;;;;;;;;;32.75;27.45;99824.34;1709256;80;25777;-56
2022/06/21 09:28:54;;;;;;;;;;;;;;;33.11;27.37;99817.27;1718227;81;25872;-55
2022/06/21 09:31:46;;;;;;;;;;;;;;;33.47;26.77;99810.93;1721256;80;25974;-54
2022/06/21 09:34:40;;;;;;;;;;;;;;;33.81;26.41;99806.20;1716385;82;28280;-56
2022/06/21 09:37:13;;;;;;;;;;;;;;;34.13;26.27;99796.52;1711745;81;25682;-56
2022/06/21 09:40:03;;;;;;;;;;;;;;;34.32;24.97;99808.28;1703022;82;25735;-55
2022/06/21 09:42:36;;;;;;;;;;;;;;;34.28;25.05;99804.50;1692369;82;25876;-54
2022/06/21 09:45:25;;;;;;;;;;;;;;;34.36;25.73;99805.67;1693579;83;26091;-56
2022/06/21 09:48:08;;;;;;;;;;;;;;;34.28;25.52;99798.08;1712141;81;27500;-56
2022/06/21 09:50:56;;;;;;;;;;;;;;;34.07;24.82;99801.39;1719164;81;25844;-56
2022/06/21 09:53:42;;;;;;;;;;;;;;;34.11;25.94;99801.61;1733722;81;25688;-55
2022/06/21 09:56:44;;;;;;;;;;;;;;;34.23;25.81;99792.06;1722313;82;25848;-56
2022/06/21 09:59:14;;;;;;;;;;;;;;;34.64;26.15;99791.55;1722311;81;25800;-57
2022/06/21 10:02:18;;;;;;;;;;;;;;;34.83;25.16;99795.46;1720645;82;27517;-56
2022/06/21 10:04:57;;;;;;;;;;;;;;;35.19;25.20;99793.62;1721466;81;25785;-56
2022/06/21 10:07:33;;;;;;;;;;;;;;;35.63;24.57;99785.30;1722376;81;25839;-56
2022/06/21 10:10:18;;;;;;;;;;;;;;;36.06;24.70;99773.25;1715478;82;26470;-58
2022/06/21 10:13:20;;;;;;;;;;;;;;;36.40;23.13;99764.48;1727424;81;25737;-56
2022/06/21 10:15:50;;;;;;;;;;;;;;;36.86;22.62;99759.17;1737632;81;27519;-56
2022/06/21 10:18:23;;;;;;;;;;;;;;;36.79;23.34;99762.53;1727100;81;25821;-56
2022/06/21 10:21:08;;;;;;;;;;;;;;;36.37;22.97;99765.15;1729132;80;25467;-56
2022/06/21 10:23:48;;;;;;;;;;;;;;;35.86;24.48;99760.76;1694273;82;25961;-56
2022/06/21 10:26:27;;;;;;;;;;;;;;;35.32;24.13;99769.45;1670724;84;25714;-56
2022/06/21 10:29:19;;;;;;;;;;;;;;;34.59;24.67;99770.76;1722084;80;27497;-56
2022/06/21 10:32:12;;;;;;;;;;;;;;;33.88;25.89;99779.29;1677888;84;25924;-56
2022/06/21 10:34:42;;;;;;;;;;;;;;;33.45;26.84;99785.33;1674985;83;25847;-56
2022/06/21 10:37:30;;;;;;;;;;;;;;;33.05;27.61;99800.64;1712384;81;25980;-56
2022/06/21 10:40:13;;;;;;;;;;;;;;;32.75;28.53;99805.70;1734772;80;25966;-58
2022/06/21 10:42:58;;;;;;;;;;;;;;;32.39;30.77;99813.34;1741832;81;27532;-56
2022/06/21 10:45:40;;;;;;;;;;;;;;;32.02;33.70;99824.80;1752893;80;25906;-56
2022/06/21 10:48:26;;;;;;;;;;;;;;;31.49;35.85;99836.97;1711853;82;25860;-56
2022/06/21 10:51:25;;;;;;;;;;;;;;;30.90;38.05;99871.28;1689774;83;26565;-56
2022/06/21 10:54:01;;;;;;;;;;;;;;;30.05;39.02;99891.44;1710401;82;25770;-56
2022/06/21 11:02:59;;;;;;;;;;;;;;;28.52;42.02;99925.70;1706670;82;25870;-56
2022/06/21 11:05:46;;;;;;;;;;;;;;;28.18;45.03;99933.16;1691948;82;25967;-56
2022/06/21 11:08:21;;;;;;;;;;;;;;;27.94;45.26;99932.80;1699858;82;25445;-55
2022/06/21 11:10:59;;;;;;;;;;;;;;;27.70;45.92;99936.06;1706840;82;46479;-56
2022/06/21 11:13:30;;;;;;;;;;;;;;;27.60;45.51;99920.30;1696872;83;25739;-56
2022/06/21 11:16:15;;;;;;;;;;;;;;;27.69;45.04;99912.86;1706277;82;25803;-56
2022/06/21 11:18:54;;;;;;;;;;;;;;;27.85;44.72;99902.66;1703136;83;25819;-55
2022/06/21 11:21:46;;;;;;;;;;;;;;;28.19;44.35;99909.94;1715523;82;25832;-55
2022/06/21 11:24:28;;;;;;;;;;;;;;;28.51;43.25;99905.24;1705433;83;28553;-56
2022/06/21 11:26:58;;;;;;;;;;;;;;;28.73;41.82;99913.28;1694356;82;25959;-55
2022/06/21 11:29:37;;;;;;;;;;;;;;;28.86;41.25;99910.48;1706928;83;25772;-55
2022/06/21 11:32:13;;;;;;;;;;;;;;;28.96;40.57;99899.39;1699630;83;25814;-55
2022/06/21 11:35:01;;;;;;;;;;;;;;;29.32;40.25;99886.84;1704123;82;25838;-56
2022/06/21 11:37:40;;;;;;;;;;;;;;;30.56;38.95;99892.19;1690080;82;27668;-56
2022/06/21 11:40:25;;;;;;;;;;;;;;;31.84;36.86;99879.30;1698063;80;25863;-59
2022/06/21 11:42:59;;;;;;;;;;;;;;;33.14;34.21;99876.52;1710986;81;25883;-56
2022/06/21 11:45:46;;;;;;;;;;;;;;;33.85;32.97;99880.30;1720152;80;25919;-56
2022/06/21 11:48:25;;;;;;;;;;;;;;;34.60;31.94;99882.13;1696527;81;25816;-56
2022/06/21 11:51:11;;;;;;;;;;;;;;;35.23;30.95;99877.89;1695485;82;27485;-56
2022/06/21 11:53:41;;;;;;;;;;;;;;;35.81;29.67;99883.45;1692459;82;26100;-56
2022/06/21 11:56:23;;;;;;;;;;;;;;;36.17;29.21;99874.48;1711747;82;25895;-57
2022/06/21 11:59:37;;;;;;;;;;;;;;;36.61;28.01;99882.23;1701334;82;26051;-56
2022/06/21 12:02:33;;;;;;;;;;;;;;;36.76;27.17;99882.84;1704598;80;25849;-56
2022/06/21 12:05:36;;;;;;;;;;;;;;;36.86;26.91;99892.28;1703827;82;27497;-56
2022/06/21 12:08:15;;;;;;;;;;;;;;;36.99;26.47;99919.88;1715497;81;25777;-56
2022/06/21 12:10:54;;;;;;;;;;;;;;;37.01;26.29;99916.75;1714125;81;25838;-56
2022/06/21 12:13:43;;;;;;;;;;;;;;;37.39;25.95;99922.36;1715159;81;25867;-57
2022/06/21 12:16:28;;;;;;;;;;;;;;;37.84;24.96;99928.50;1712542;82;26552;-56
2022/06/21 12:18:58;;;;;;;;;;;;;;;37.60;24.88;99939.82;1709263;82;27642;-56
2022/06/21 12:21:27;;;;;;;;;;;;;;;37.73;24.97;99935.92;1714074;82;25722;-56
2022/06/21 12:23:58;;;;;;;;;;;;;;;37.78;24.86;99943.31;1707453;81;26236;-56
2022/06/21 12:26:27;;;;;;;;;;;;;;;38.01;24.06;99946.64;1708087;81;26460;-56
2022/06/21 12:28:56;;;;;;;;;;;;;;;37.91;24.49;99945.64;1712725;81;25719;-55
2022/06/21 12:31:31;;;;;;;;;;;;;;;37.51;24.54;99945.47;1712238;81;28540;-56
2022/06/21 12:34:01;;;;;;;;;;;;;;;37.99;24.76;99946.16;1710992;82;25767;-56
2022/06/21 12:36:49;;;;;;;;;;;;;;;38.37;23.95;99948.61;1708345;82;25857;-56
2022/06/21 12:39:35;;;;;;;;;;;;;;;38.48;23.52;99933.54;1719783;81;25856;-55
2022/06/21 12:42:17;;;;;;;;;;;;;;;38.55;23.25;99941.41;1690824;83;25770;-57
2022/06/21 12:45:04;;;;;;;;;;;;;;;38.61;23.36;99932.98;1698088;83;28605;-57
2022/06/21 12:47:40;;;;;;;;;;;;;;;38.06;23.42;99948.42;1672899;83;25780;-57
2022/06/21 12:50:38;;;;;;;;;;;;;;;37.85;23.82;99942.22;1661804;83;25934;-56
2022/06/21 12:53:20;;;;;;;;;;;;;;;38.14;23.11;99941.91;1610762;88;25852;-56
2022/06/21 12:56:10;;;;;;;;;;;;;;;38.14;23.26;99950.93;1686080;84;25785;-57
2022/06/21 12:58:57;;;;;;;;;;;;;;;38.18;23.09;99956.08;1647333;83;27589;-56
2022/06/21 13:01:41;;;;;;;;;;;;;;;38.22;21.63;99943.01;1686144;84;25693;-56
2022/06/21 13:04:30;;;;;;;;;;;;;;;37.95;22.25;99942.41;1684257;83;25650;-56
2022/06/21 13:07:18;;;;;;;;;;;;;;;37.79;22.52;99946.96;1680937;84;25873;-56
2022/06/21 13:10:09;;;;;;;;;;;;;;;38.16;21.99;99954.19;1687950;85;25831;-57
2022/06/21 13:12:55;;;;;;;;;;;;;;;37.00;23.03;99961.36;1733142;80;27529;-57
2022/06/21 13:15:27;;;;;;;;;;;;;;;35.90;23.91;99964.59;1745217;81;26038;-56
2022/06/21 13:18:04;;;;;;;;;;;;;;;35.57;24.44;99964.44;1741940;81;25751;-56
2022/06/21 13:20:58;;;;;;;;;;;;;;;35.16;24.85;99969.78;1737709;81;25978;-56
2022/06/21 13:23:46;;;;;;;;;;;;;;;35.16;24.95;99964.20;1747231;80;25774;-56
2022/06/21 13:26:26;;;;;;;;;;;;;;;36.01;23.35;99965.12;1740648;81;27371;-56
2022/06/21 13:29:02;;;;;;;;;;;;;;;35.63;23.98;99979.69;1739260;82;25715;-56
2022/06/21 13:31:55;;;;;;;;;;;;;;;35.55;23.90;99968.72;1737801;81;25771;-57
2022/06/21 13:34:28;;;;;;;;;;;;;;;35.01;24.12;99967.42;1744814;80;25854;-57
2022/06/21 13:36:58;;;;;;;;;;;;;;;33.62;25.31;99986.23;1744309;82;25785;-56
2022/06/21 13:39:37;;;;;;;;;;;;;;;32.92;26.18;99990.89;1747079;81;28529;-56
2022/06/21 13:42:37;;;;;;;;;;;;;;;32.19;26.83;99996.72;1759767;80;26001;-54
2022/06/21 13:45:19;;;;;;;;;;;;;;;31.61;27.86;99990.78;1765199;80;25799;-56
2022/06/21 13:48:08;;;;;;;;;;;;;;;31.98;27.55;99981.73;1732639;80;25953;-56